sensor_id;sensor_type;location;lat;lon;timestamp;P1;durP1;ratioP1;P2;durP2;ratioP2
60730;SDS011;46580;52.114;11.674;2022-12-11T00:00:49;7.13;;;3.70;;
60730;SDS011;46580;52.114;11.674;2022-12-11T00:03:15;8.33;;;3.73;;
60730;SDS011;46580;52.114;11.674;2022-12-11T00:05:41;5.57;;;3.85;;
60730;SDS011;46580;52.114;11.674;2022-12-11T00:08:07;7.75;;;3.90;;
60730;SDS011;46580;52.114;11.674;2022-12-11T00:10:33;7.90;;;4.13;;
60730;SDS011;46580;52.114;11.674;2022-12-11T00:12:58;8.13;;;4.90;;
60730;SDS011;46580;52.114;11.674;2022-12-11T00:15:24;7.83;;;4.53;;
60730;SDS011;46580;52.114;11.674;2022-12-11T00:17:49;6.60;;;3.50;;
60730;SDS011;46580;52.114;11.674;2022-12-11T00:20:14;6.07;;;3.87;;
60730;SDS011;46580;52.114;11.674;2022-12-11T00:22:40;7.23;;;4.20;;
60730;SDS011;46580;52.114;11.674;2022-12-11T00:25:05;6.23;;;4.47;;
60730;SDS011;46580;52.114;11.674;2022-12-11T00:27:31;8.17;;;4.27;;
60730;SDS011;46580;52.114;11.674;2022-12-11T00:29:56;5.90;;;4.00;;
60730;SDS011;46580;52.114;11.674;2022-12-11T00:32:22;6.30;;;3.60;;
60730;SDS011;46580;52.114;11.674;2022-12-11T00:34:48;6.03;;;3.50;;
60730;SDS011;46580;52.114;11.674;2022-12-11T00:37:13;6.30;;;3.90;;
60730;SDS011;46580;52.114;11.674;2022-12-11T00:39:38;6.97;;;4.10;;
60730;SDS011;46580;52.114;11.674;2022-12-11T00:42:04;6.13;;;3.97;;
60730;SDS011;46580;52.114;11.674;2022-12-11T00:44:30;10.65;;;4.40;;
60730;SDS011;46580;52.114;11.674;2022-12-11T00:47:01;8.47;;;4.70;;
60730;SDS011;46580;52.114;11.674;2022-12-11T00:49:27;7.30;;;4.32;;
60730;SDS011;46580;52.114;11.674;2022-12-11T00:51:53;8.90;;;5.13;;
60730;SDS011;46580;52.114;11.674;2022-12-11T00:54:18;8.37;;;4.50;;
60730;SDS011;46580;52.114;11.674;2022-12-11T00:56:44;7.73;;;4.70;;
60730;SDS011;46580;52.114;11.674;2022-12-11T00:59:09;7.83;;;4.87;;
60730;SDS011;46580;52.114;11.674;2022-12-11T01:01:34;7.63;;;4.03;;
60730;SDS011;46580;52.114;11.674;2022-12-11T01:04:02;7.90;;;4.65;;
60730;SDS011;46580;52.114;11.674;2022-12-11T01:06:27;7.60;;;4.70;;
60730;SDS011;46580;52.114;11.674;2022-12-11T01:08:53;11.37;;;4.63;;
60730;SDS011;46580;52.114;11.674;2022-12-11T01:11:37;7.90;;;4.18;;
60730;SDS011;46580;52.114;11.674;2022-12-11T01:14:03;7.47;;;4.70;;
60730;SDS011;46580;52.114;11.674;2022-12-11T01:16:29;7.93;;;4.55;;
60730;SDS011;46580;52.114;11.674;2022-12-11T01:18:55;7.67;;;4.53;;
60730;SDS011;46580;52.114;11.674;2022-12-11T01:21:21;9.30;;;5.13;;
60730;SDS011;46580;52.114;11.674;2022-12-11T01:23:48;10.18;;;4.03;;
60730;SDS011;46580;52.114;11.674;2022-12-11T01:26:14;7.40;;;4.40;;
60730;SDS011;46580;52.114;11.674;2022-12-11T01:28:40;9.00;;;4.70;;
60730;SDS011;46580;52.114;11.674;2022-12-11T01:31:12;8.97;;;4.67;;
60730;SDS011;46580;52.114;11.674;2022-12-11T01:33:40;5.72;;;3.85;;
60730;SDS011;46580;52.114;11.674;2022-12-11T01:36:16;8.80;;;4.67;;
60730;SDS011;46580;52.114;11.674;2022-12-11T01:38:44;7.63;;;3.65;;
60730;SDS011;46580;52.114;11.674;2022-12-11T01:41:10;6.88;;;4.40;;
60730;SDS011;46580;52.114;11.674;2022-12-11T01:43:55;7.03;;;4.27;;
60730;SDS011;46580;52.114;11.674;2022-12-11T01:46:32;6.70;;;4.03;;
60730;SDS011;46580;52.114;11.674;2022-12-11T01:49:00;7.10;;;3.90;;
60730;SDS011;46580;52.114;11.674;2022-12-11T01:51:28;4.97;;;3.58;;
60730;SDS011;46580;52.114;11.674;2022-12-11T01:54:01;7.40;;;3.65;;
60730;SDS011;46580;52.114;11.674;2022-12-11T01:56:31;5.45;;;3.85;;
60730;SDS011;46580;52.114;11.674;2022-12-11T01:59:01;7.13;;;4.53;;
60730;SDS011;46580;52.114;11.674;2022-12-11T02:01:33;6.35;;;3.88;;
60730;SDS011;46580;52.114;11.674;2022-12-11T02:04:08;6.22;;;3.40;;
60730;SDS011;46580;52.114;11.674;2022-12-11T02:06:36;8.20;;;4.05;;
60730;SDS011;46580;52.114;11.674;2022-12-11T02:09:04;7.55;;;4.13;;
60730;SDS011;46580;52.114;11.674;2022-12-11T02:11:34;6.70;;;4.10;;
60730;SDS011;46580;52.114;11.674;2022-12-11T02:17:00;7.53;;;4.25;;
60730;SDS011;46580;52.114;11.674;2022-12-11T02:22:03;7.45;;;4.47;;
60730;SDS011;46580;52.114;11.674;2022-12-11T02:29:59;6.95;;;4.20;;
60730;SDS011;46580;52.114;11.674;2022-12-11T02:32:37;7.60;;;3.92;;
60730;SDS011;46580;52.114;11.674;2022-12-11T02:37:47;9.30;;;4.93;;
60730;SDS011;46580;52.114;11.674;2022-12-11T02:40:21;6.55;;;3.97;;
60730;SDS011;46580;52.114;11.674;2022-12-11T02:42:49;8.07;;;3.65;;
60730;SDS011;46580;52.114;11.674;2022-12-11T02:45:16;9.20;;;3.13;;
60730;SDS011;46580;52.114;11.674;2022-12-11T02:47:43;7.07;;;4.05;;
60730;SDS011;46580;52.114;11.674;2022-12-11T02:50:12;7.90;;;4.65;;
60730;SDS011;46580;52.114;11.674;2022-12-11T02:52:42;9.02;;;4.28;;
60730;SDS011;46580;52.114;11.674;2022-12-11T02:55:11;10.50;;;4.57;;
60730;SDS011;46580;52.114;11.674;2022-12-11T03:00:40;8.88;;;4.28;;
60730;SDS011;46580;52.114;11.674;2022-12-11T03:03:05;7.53;;;4.33;;
60730;SDS011;46580;52.114;11.674;2022-12-11T03:05:31;7.63;;;4.53;;
60730;SDS011;46580;52.114;11.674;2022-12-11T03:07:56;8.13;;;4.47;;
60730;SDS011;46580;52.114;11.674;2022-12-11T03:10:22;7.32;;;4.35;;
60730;SDS011;46580;52.114;11.674;2022-12-11T03:12:49;7.50;;;4.57;;
60730;SDS011;46580;52.114;11.674;2022-12-11T03:15:18;8.70;;;4.65;;
60730;SDS011;46580;52.114;11.674;2022-12-11T03:17:52;8.00;;;4.60;;
60730;SDS011;46580;52.114;11.674;2022-12-11T03:23:03;8.32;;;4.35;;
60730;SDS011;46580;52.114;11.674;2022-12-11T03:26:14;8.88;;;4.93;;
60730;SDS011;46580;52.114;11.674;2022-12-11T03:28:31;8.07;;;3.90;;
60730;SDS011;46580;52.114;11.674;2022-12-11T03:31:02;9.27;;;4.80;;
60730;SDS011;46580;52.114;11.674;2022-12-11T03:33:32;10.38;;;5.22;;
60730;SDS011;46580;52.114;11.674;2022-12-11T03:36:05;11.52;;;4.68;;
60730;SDS011;46580;52.114;11.674;2022-12-11T03:38:40;6.68;;;4.00;;
60730;SDS011;46580;52.114;11.674;2022-12-11T03:41:10;10.52;;;4.72;;
60730;SDS011;46580;52.114;11.674;2022-12-11T03:43:39;7.45;;;3.95;;
60730;SDS011;46580;52.114;11.674;2022-12-11T03:46:05;10.10;;;4.47;;
60730;SDS011;46580;52.114;11.674;2022-12-11T03:48:33;8.38;;;4.68;;
60730;SDS011;46580;52.114;11.674;2022-12-11T03:51:05;8.52;;;5.10;;
60730;SDS011;46580;52.114;11.674;2022-12-11T03:53:33;12.07;;;6.05;;
60730;SDS011;46580;52.114;11.674;2022-12-11T03:55:59;8.95;;;4.25;;
60730;SDS011;46580;52.114;11.674;2022-12-11T03:58:27;9.60;;;5.10;;
60730;SDS011;46580;52.114;11.674;2022-12-11T04:00:53;11.20;;;4.97;;
60730;SDS011;46580;52.114;11.674;2022-12-11T04:03:19;10.37;;;4.60;;
60730;SDS011;46580;52.114;11.674;2022-12-11T04:05:46;9.13;;;4.97;;
60730;SDS011;46580;52.114;11.674;2022-12-11T04:08:13;7.50;;;4.13;;
60730;SDS011;46580;52.114;11.674;2022-12-11T04:10:40;8.13;;;4.07;;
60730;SDS011;46580;52.114;11.674;2022-12-11T04:13:05;7.77;;;4.47;;
60730;SDS011;46580;52.114;11.674;2022-12-11T04:15:31;10.18;;;4.40;;
60730;SDS011;46580;52.114;11.674;2022-12-11T04:17:57;8.20;;;4.17;;
60730;SDS011;46580;52.114;11.674;2022-12-11T04:20:43;10.68;;;5.15;;
60730;SDS011;46580;52.114;11.674;2022-12-11T04:23:28;6.78;;;3.90;;
60730;SDS011;46580;52.114;11.674;2022-12-11T04:26:13;7.40;;;4.07;;
60730;SDS011;46580;52.114;11.674;2022-12-11T04:28:40;8.75;;;4.70;;
60730;SDS011;46580;52.114;11.674;2022-12-11T04:31:10;7.70;;;4.20;;
60730;SDS011;46580;52.114;11.674;2022-12-11T04:33:37;13.02;;;4.85;;
60730;SDS011;46580;52.114;11.674;2022-12-11T04:36:03;8.68;;;4.47;;
60730;SDS011;46580;52.114;11.674;2022-12-11T04:38:29;7.20;;;4.13;;
60730;SDS011;46580;52.114;11.674;2022-12-11T04:41:02;6.30;;;3.73;;
60730;SDS011;46580;52.114;11.674;2022-12-11T04:43:36;7.07;;;3.95;;
60730;SDS011;46580;52.114;11.674;2022-12-11T04:46:09;9.25;;;5.03;;
60730;SDS011;46580;52.114;11.674;2022-12-11T04:48:37;9.25;;;5.15;;
60730;SDS011;46580;52.114;11.674;2022-12-11T04:51:21;9.40;;;4.47;;
60730;SDS011;46580;52.114;11.674;2022-12-11T04:53:46;14.07;;;5.32;;
60730;SDS011;46580;52.114;11.674;2022-12-11T04:56:14;8.73;;;4.88;;
60730;SDS011;46580;52.114;11.674;2022-12-11T04:58:41;9.60;;;4.25;;
60730;SDS011;46580;52.114;11.674;2022-12-11T05:01:08;10.02;;;4.28;;
60730;SDS011;46580;52.114;11.674;2022-12-11T05:03:35;8.63;;;4.32;;
60730;SDS011;46580;52.114;11.674;2022-12-11T05:06:01;9.98;;;4.40;;
60730;SDS011;46580;52.114;11.674;2022-12-11T05:08:26;8.57;;;4.53;;
60730;SDS011;46580;52.114;11.674;2022-12-11T05:10:59;10.60;;;4.73;;
60730;SDS011;46580;52.114;11.674;2022-12-11T05:13:30;9.32;;;4.88;;
60730;SDS011;46580;52.114;11.674;2022-12-11T05:15:55;9.37;;;4.20;;
60730;SDS011;46580;52.114;11.674;2022-12-11T05:18:21;8.30;;;4.80;;
60730;SDS011;46580;52.114;11.674;2022-12-11T05:20:58;9.38;;;4.80;;
60730;SDS011;46580;52.114;11.674;2022-12-11T05:23:25;9.55;;;4.80;;
60730;SDS011;46580;52.114;11.674;2022-12-11T05:25:51;9.53;;;5.10;;
60730;SDS011;46580;52.114;11.674;2022-12-11T05:28:18;12.75;;;4.78;;
60730;SDS011;46580;52.114;11.674;2022-12-11T05:30:45;8.02;;;4.45;;
60730;SDS011;46580;52.114;11.674;2022-12-11T05:33:11;11.67;;;5.67;;
60730;SDS011;46580;52.114;11.674;2022-12-11T05:35:36;9.43;;;4.73;;
60730;SDS011;46580;52.114;11.674;2022-12-11T05:38:02;10.07;;;4.97;;
60730;SDS011;46580;52.114;11.674;2022-12-11T05:40:27;9.70;;;5.07;;
60730;SDS011;46580;52.114;11.674;2022-12-11T05:42:52;9.63;;;4.37;;
60730;SDS011;46580;52.114;11.674;2022-12-11T05:45:18;10.90;;;5.33;;
60730;SDS011;46580;52.114;11.674;2022-12-11T05:47:43;8.87;;;5.13;;
60730;SDS011;46580;52.114;11.674;2022-12-11T05:50:08;8.23;;;4.73;;
60730;SDS011;46580;52.114;11.674;2022-12-11T05:52:35;8.82;;;4.80;;
60730;SDS011;46580;52.114;11.674;2022-12-11T05:55:01;10.20;;;5.30;;
60730;SDS011;46580;52.114;11.674;2022-12-11T05:57:26;9.57;;;5.23;;
60730;SDS011;46580;52.114;11.674;2022-12-11T05:59:52;9.13;;;4.20;;
60730;SDS011;46580;52.114;11.674;2022-12-11T06:02:17;9.77;;;5.70;;
60730;SDS011;46580;52.114;11.674;2022-12-11T06:04:42;9.97;;;4.83;;
60730;SDS011;46580;52.114;11.674;2022-12-11T06:07:08;11.13;;;5.43;;
60730;SDS011;46580;52.114;11.674;2022-12-11T06:09:33;10.77;;;5.40;;
60730;SDS011;46580;52.114;11.674;2022-12-11T06:12:00;8.57;;;4.68;;
60730;SDS011;46580;52.114;11.674;2022-12-11T06:14:25;10.13;;;5.00;;
60730;SDS011;46580;52.114;11.674;2022-12-11T06:16:51;11.68;;;4.75;;
60730;SDS011;46580;52.114;11.674;2022-12-11T06:19:16;8.77;;;4.67;;
60730;SDS011;46580;52.114;11.674;2022-12-11T06:21:42;9.23;;;4.83;;
60730;SDS011;46580;52.114;11.674;2022-12-11T06:24:11;8.20;;;3.92;;
60730;SDS011;46580;52.114;11.674;2022-12-11T06:26:36;9.07;;;4.60;;
60730;SDS011;46580;52.114;11.674;2022-12-11T06:29:02;10.33;;;5.33;;
60730;SDS011;46580;52.114;11.674;2022-12-11T06:31:27;10.43;;;5.37;;
60730;SDS011;46580;52.114;11.674;2022-12-11T06:33:53;9.23;;;4.47;;
60730;SDS011;46580;52.114;11.674;2022-12-11T06:36:20;9.97;;;5.40;;
60730;SDS011;46580;52.114;11.674;2022-12-11T06:38:46;8.25;;;4.45;;
60730;SDS011;46580;52.114;11.674;2022-12-11T06:41:12;8.77;;;4.37;;
60730;SDS011;46580;52.114;11.674;2022-12-11T06:43:39;7.25;;;4.10;;
60730;SDS011;46580;52.114;11.674;2022-12-11T06:46:06;11.02;;;4.70;;
60730;SDS011;46580;52.114;11.674;2022-12-11T06:48:32;10.02;;;4.50;;
60730;SDS011;46580;52.114;11.674;2022-12-11T06:50:58;9.30;;;4.90;;
60730;SDS011;46580;52.114;11.674;2022-12-11T06:53:52;8.05;;;4.25;;
60730;SDS011;46580;52.114;11.674;2022-12-11T06:56:20;9.25;;;4.60;;
60730;SDS011;46580;52.114;11.674;2022-12-11T06:58:45;11.00;;;5.13;;
60730;SDS011;46580;52.114;11.674;2022-12-11T07:01:16;13.18;;;4.38;;
60730;SDS011;46580;52.114;11.674;2022-12-11T07:03:42;8.40;;;4.18;;
60730;SDS011;46580;52.114;11.674;2022-12-11T07:06:08;10.18;;;4.80;;
60730;SDS011;46580;52.114;11.674;2022-12-11T07:08:34;10.30;;;5.20;;
60730;SDS011;46580;52.114;11.674;2022-12-11T07:11:03;9.27;;;4.60;;
60730;SDS011;46580;52.114;11.674;2022-12-11T07:13:30;8.98;;;4.50;;
60730;SDS011;46580;52.114;11.674;2022-12-11T07:15:56;9.73;;;4.93;;
60730;SDS011;46580;52.114;11.674;2022-12-11T07:18:24;10.10;;;4.85;;
60730;SDS011;46580;52.114;11.674;2022-12-11T07:20:50;8.75;;;4.20;;
60730;SDS011;46580;52.114;11.674;2022-12-11T07:23:16;8.87;;;4.20;;
60730;SDS011;46580;52.114;11.674;2022-12-11T07:25:41;11.50;;;5.17;;
60730;SDS011;46580;52.114;11.674;2022-12-11T07:28:07;9.90;;;4.50;;
60730;SDS011;46580;52.114;11.674;2022-12-11T07:30:32;10.57;;;4.03;;
60730;SDS011;46580;52.114;11.674;2022-12-11T07:32:57;11.47;;;4.83;;
60730;SDS011;46580;52.114;11.674;2022-12-11T07:35:24;9.65;;;4.82;;
60730;SDS011;46580;52.114;11.674;2022-12-11T07:37:49;10.07;;;4.77;;
60730;SDS011;46580;52.114;11.674;2022-12-11T07:40:15;7.23;;;4.13;;
60730;SDS011;46580;52.114;11.674;2022-12-11T07:42:40;11.10;;;4.30;;
60730;SDS011;46580;52.114;11.674;2022-12-11T07:45:06;8.30;;;4.37;;
60730;SDS011;46580;52.114;11.674;2022-12-11T07:47:32;11.63;;;4.93;;
60730;SDS011;46580;52.114;11.674;2022-12-11T07:49:58;8.57;;;4.78;;
60730;SDS011;46580;52.114;11.674;2022-12-11T07:52:23;10.07;;;5.00;;
60730;SDS011;46580;52.114;11.674;2022-12-11T07:54:50;9.35;;;4.90;;
60730;SDS011;46580;52.114;11.674;2022-12-11T07:57:15;9.80;;;4.70;;
60730;SDS011;46580;52.114;11.674;2022-12-11T07:59:41;11.00;;;5.13;;
60730;SDS011;46580;52.114;11.674;2022-12-11T08:02:09;9.88;;;4.78;;
60730;SDS011;46580;52.114;11.674;2022-12-11T08:04:35;12.00;;;4.95;;
60730;SDS011;46580;52.114;11.674;2022-12-11T08:07:01;11.33;;;4.77;;
60730;SDS011;46580;52.114;11.674;2022-12-11T08:09:28;12.85;;;5.63;;
60730;SDS011;46580;52.114;11.674;2022-12-11T08:11:54;12.67;;;5.03;;
60730;SDS011;46580;52.114;11.674;2022-12-11T08:14:20;10.73;;;4.55;;
60730;SDS011;46580;52.114;11.674;2022-12-11T08:16:46;13.30;;;5.47;;
60730;SDS011;46580;52.114;11.674;2022-12-11T08:19:11;15.63;;;5.13;;
60730;SDS011;46580;52.114;11.674;2022-12-11T08:21:38;8.27;;;4.82;;
60730;SDS011;46580;52.114;11.674;2022-12-11T08:24:04;7.73;;;3.57;;
60730;SDS011;46580;52.114;11.674;2022-12-11T08:26:29;10.57;;;5.27;;
60730;SDS011;46580;52.114;11.674;2022-12-11T08:28:55;11.75;;;5.40;;
60730;SDS011;46580;52.114;11.674;2022-12-11T08:31:21;11.30;;;4.80;;
60730;SDS011;46580;52.114;11.674;2022-12-11T08:33:48;8.93;;;5.05;;
60730;SDS011;46580;52.114;11.674;2022-12-11T08:36:15;7.82;;;4.50;;
60730;SDS011;46580;52.114;11.674;2022-12-11T08:38:42;11.32;;;4.85;;
60730;SDS011;46580;52.114;11.674;2022-12-11T08:41:11;10.00;;;4.70;;
60730;SDS011;46580;52.114;11.674;2022-12-11T08:43:37;11.38;;;4.97;;
60730;SDS011;46580;52.114;11.674;2022-12-11T08:46:03;11.90;;;5.63;;
60730;SDS011;46580;52.114;11.674;2022-12-11T08:48:29;13.38;;;5.82;;
60730;SDS011;46580;52.114;11.674;2022-12-11T08:51:03;13.10;;;5.30;;
60730;SDS011;46580;52.114;11.674;2022-12-11T08:53:30;7.65;;;4.35;;
60730;SDS011;46580;52.114;11.674;2022-12-11T08:56:04;11.82;;;5.75;;
60730;SDS011;46580;52.114;11.674;2022-12-11T08:58:35;10.65;;;4.97;;
60730;SDS011;46580;52.114;11.674;2022-12-11T09:01:04;10.43;;;5.63;;
60730;SDS011;46580;52.114;11.674;2022-12-11T09:03:34;9.93;;;5.15;;
60730;SDS011;46580;52.114;11.674;2022-12-11T09:06:02;9.38;;;4.82;;
60730;SDS011;46580;52.114;11.674;2022-12-11T09:08:30;13.20;;;5.30;;
60730;SDS011;46580;52.114;11.674;2022-12-11T09:10:55;10.53;;;5.73;;
60730;SDS011;46580;52.114;11.674;2022-12-11T09:13:20;13.53;;;5.17;;
60730;SDS011;46580;52.114;11.674;2022-12-11T09:15:46;14.83;;;5.90;;
60730;SDS011;46580;52.114;11.674;2022-12-11T09:18:11;10.33;;;5.93;;
60730;SDS011;46580;52.114;11.674;2022-12-11T09:20:37;10.53;;;4.63;;
60730;SDS011;46580;52.114;11.674;2022-12-11T09:23:02;10.07;;;4.53;;
60730;SDS011;46580;52.114;11.674;2022-12-11T09:25:28;14.77;;;6.30;;
60730;SDS011;46580;52.114;11.674;2022-12-11T09:27:53;12.03;;;4.83;;
60730;SDS011;46580;52.114;11.674;2022-12-11T09:30:19;11.97;;;5.80;;
60730;SDS011;46580;52.114;11.674;2022-12-11T09:32:44;10.73;;;4.60;;
60730;SDS011;46580;52.114;11.674;2022-12-11T09:35:10;6.03;;;3.57;;
60730;SDS011;46580;52.114;11.674;2022-12-11T09:37:35;6.57;;;3.73;;
60730;SDS011;46580;52.114;11.674;2022-12-11T09:40:00;10.17;;;4.03;;
60730;SDS011;46580;52.114;11.674;2022-12-11T09:42:39;11.50;;;4.30;;
60730;SDS011;46580;52.114;11.674;2022-12-11T09:45:09;10.30;;;5.00;;
60730;SDS011;46580;52.114;11.674;2022-12-11T09:48:00;8.90;;;4.50;;
60730;SDS011;46580;52.114;11.674;2022-12-11T09:50:26;9.73;;;4.65;;
60730;SDS011;46580;52.114;11.674;2022-12-11T09:55:55;7.43;;;2.38;;
60730;SDS011;46580;52.114;11.674;2022-12-11T10:01:31;6.63;;;3.17;;
60730;SDS011;46580;52.114;11.674;2022-12-11T10:04:27;9.02;;;4.85;;
60730;SDS011;46580;52.114;11.674;2022-12-11T10:07:29;13.30;;;5.95;;
60730;SDS011;46580;52.114;11.674;2022-12-11T10:10:06;10.20;;;5.72;;
60730;SDS011;46580;52.114;11.674;2022-12-11T10:15:22;12.88;;;5.72;;
60730;SDS011;46580;52.114;11.674;2022-12-11T10:17:54;11.82;;;4.82;;
60730;SDS011;46580;52.114;11.674;2022-12-11T10:22:51;13.40;;;4.90;;
60730;SDS011;46580;52.114;11.674;2022-12-11T10:25:21;9.80;;;4.53;;
60730;SDS011;46580;52.114;11.674;2022-12-11T10:27:50;8.75;;;4.47;;
60730;SDS011;46580;52.114;11.674;2022-12-11T10:30:23;7.90;;;3.67;;
60730;SDS011;46580;52.114;11.674;2022-12-11T10:35:42;5.55;;;2.92;;
60730;SDS011;46580;52.114;11.674;2022-12-11T10:38:13;10.93;;;5.65;;
60730;SDS011;46580;52.114;11.674;2022-12-11T10:40:54;8.93;;;4.55;;
60730;SDS011;46580;52.114;11.674;2022-12-11T10:43:49;8.82;;;4.05;;
60730;SDS011;46580;52.114;11.674;2022-12-11T10:46:20;11.40;;;5.03;;
60730;SDS011;46580;52.114;11.674;2022-12-11T10:48:48;12.13;;;5.57;;
60730;SDS011;46580;52.114;11.674;2022-12-11T10:51:18;16.08;;;6.47;;
60730;SDS011;46580;52.114;11.674;2022-12-11T10:53:52;14.27;;;6.00;;
60730;SDS011;46580;52.114;11.674;2022-12-11T10:56:25;10.18;;;4.25;;
60730;SDS011;46580;52.114;11.674;2022-12-11T10:58:52;10.30;;;5.25;;
60730;SDS011;46580;52.114;11.674;2022-12-11T11:01:22;10.82;;;4.47;;
60730;SDS011;46580;52.114;11.674;2022-12-11T11:06:21;13.63;;;5.55;;
60730;SDS011;46580;52.114;11.674;2022-12-11T11:08:49;11.60;;;5.80;;
60730;SDS011;46580;52.114;11.674;2022-12-11T11:13:44;13.40;;;5.90;;
60730;SDS011;46580;52.114;11.674;2022-12-11T11:16:14;11.13;;;6.00;;
60730;SDS011;46580;52.114;11.674;2022-12-11T11:18:47;9.98;;;5.55;;
60730;SDS011;46580;52.114;11.674;2022-12-11T11:21:19;14.90;;;5.88;;
60730;SDS011;46580;52.114;11.674;2022-12-11T11:23:47;13.30;;;6.07;;
60730;SDS011;46580;52.114;11.674;2022-12-11T11:26:13;10.83;;;6.30;;
60730;SDS011;46580;52.114;11.674;2022-12-11T11:28:40;14.07;;;5.95;;
60730;SDS011;46580;52.114;11.674;2022-12-11T11:31:12;12.73;;;6.07;;
60730;SDS011;46580;52.114;11.674;2022-12-11T11:36:40;12.63;;;6.07;;
60730;SDS011;46580;52.114;11.674;2022-12-11T11:39:19;11.17;;;4.80;;
60730;SDS011;46580;52.114;11.674;2022-12-11T11:42:00;10.52;;;5.70;;
60730;SDS011;46580;52.114;11.674;2022-12-11T11:44:48;18.92;;;6.97;;
60730;SDS011;46580;52.114;11.674;2022-12-11T11:47:18;13.38;;;5.97;;
60730;SDS011;46580;52.114;11.674;2022-12-11T11:52:37;14.73;;;6.50;;
60730;SDS011;46580;52.114;11.674;2022-12-11T11:55:44;10.80;;;5.45;;
60730;SDS011;46580;52.114;11.674;2022-12-11T11:58:38;13.13;;;6.07;;
60730;SDS011;46580;52.114;11.674;2022-12-11T12:01:25;12.27;;;6.00;;
60730;SDS011;46580;52.114;11.674;2022-12-11T12:03:50;15.77;;;6.43;;
60730;SDS011;46580;52.114;11.674;2022-12-11T12:09:16;11.05;;;5.95;;
60730;SDS011;46580;52.114;11.674;2022-12-11T12:14:34;15.63;;;6.50;;
60730;SDS011;46580;52.114;11.674;2022-12-11T12:20:27;12.10;;;5.85;;
60730;SDS011;46580;52.114;11.674;2022-12-11T12:47:36;16.00;;;6.70;;
60730;SDS011;46580;52.114;11.674;2022-12-11T12:50:03;14.57;;;6.50;;
60730;SDS011;46580;52.114;11.674;2022-12-11T12:52:36;14.35;;;6.32;;
60730;SDS011;46580;52.114;11.674;2022-12-11T12:57:38;13.32;;;5.88;;
60730;SDS011;46580;52.114;11.674;2022-12-11T13:00:08;16.58;;;6.57;;
60730;SDS011;46580;52.114;11.674;2022-12-11T13:02:37;13.88;;;5.97;;
60730;SDS011;46580;52.114;11.674;2022-12-11T13:05:18;14.05;;;5.78;;
60730;SDS011;46580;52.114;11.674;2022-12-11T13:07:51;12.10;;;6.35;;
60730;SDS011;46580;52.114;11.674;2022-12-11T13:10:23;11.30;;;6.43;;
60730;SDS011;46580;52.114;11.674;2022-12-11T13:12:51;16.67;;;7.68;;
60730;SDS011;46580;52.114;11.674;2022-12-11T13:17:51;11.90;;;6.63;;
60730;SDS011;46580;52.114;11.674;2022-12-11T13:20:19;12.23;;;6.00;;
60730;SDS011;46580;52.114;11.674;2022-12-11T13:22:53;14.60;;;6.53;;
60730;SDS011;46580;52.114;11.674;2022-12-11T13:25:22;14.30;;;6.57;;
60730;SDS011;46580;52.114;11.674;2022-12-11T13:27:50;12.00;;;6.32;;
60730;SDS011;46580;52.114;11.674;2022-12-11T13:35:38;14.75;;;6.40;;
60730;SDS011;46580;52.114;11.674;2022-12-11T13:38:14;9.93;;;5.35;;
60730;SDS011;46580;52.114;11.674;2022-12-11T13:40:42;14.57;;;6.07;;
60730;SDS011;46580;52.114;11.674;2022-12-11T13:43:17;12.90;;;6.90;;
60730;SDS011;46580;52.114;11.674;2022-12-11T13:45:57;14.60;;;6.38;;
60730;SDS011;46580;52.114;11.674;2022-12-11T13:48:26;16.85;;;6.90;;
60730;SDS011;46580;52.114;11.674;2022-12-11T13:50:56;14.65;;;7.53;;
60730;SDS011;46580;52.114;11.674;2022-12-11T13:53:23;13.52;;;6.55;;
60730;SDS011;46580;52.114;11.674;2022-12-11T13:55:56;12.07;;;5.30;;
60730;SDS011;46580;52.114;11.674;2022-12-11T13:58:23;13.30;;;7.20;;
60730;SDS011;46580;52.114;11.674;2022-12-11T14:00:52;12.20;;;6.20;;
60730;SDS011;46580;52.114;11.674;2022-12-11T14:03:23;13.15;;;7.20;;
60730;SDS011;46580;52.114;11.674;2022-12-11T14:05:49;10.43;;;5.30;;
60730;SDS011;46580;52.114;11.674;2022-12-11T14:08:19;12.10;;;6.37;;
60730;SDS011;46580;52.114;11.674;2022-12-11T14:10:52;15.18;;;5.97;;
60730;SDS011;46580;52.114;11.674;2022-12-11T14:15:51;12.93;;;5.85;;
60730;SDS011;46580;52.114;11.674;2022-12-11T14:18:29;11.13;;;6.65;;
60730;SDS011;46580;52.114;11.674;2022-12-11T14:21:03;16.45;;;6.63;;
60730;SDS011;46580;52.114;11.674;2022-12-11T14:23:33;12.57;;;5.82;;
60730;SDS011;46580;52.114;11.674;2022-12-11T14:26:14;15.98;;;9.25;;
60730;SDS011;46580;52.114;11.674;2022-12-11T14:28:42;12.45;;;6.03;;
60730;SDS011;46580;52.114;11.674;2022-12-11T14:31:07;18.30;;;10.57;;
60730;SDS011;46580;52.114;11.674;2022-12-11T14:33:38;17.70;;;9.30;;
60730;SDS011;46580;52.114;11.674;2022-12-11T14:36:07;14.98;;;7.57;;
60730;SDS011;46580;52.114;11.674;2022-12-11T14:38:35;9.35;;;4.55;;
60730;SDS011;46580;52.114;11.674;2022-12-11T14:41:05;12.38;;;6.32;;
60730;SDS011;46580;52.114;11.674;2022-12-11T14:43:39;15.30;;;6.70;;
60730;SDS011;46580;52.114;11.674;2022-12-11T14:46:16;12.85;;;6.40;;
60730;SDS011;46580;52.114;11.674;2022-12-11T14:49:06;13.82;;;6.80;;
60730;SDS011;46580;52.114;11.674;2022-12-11T14:51:46;16.52;;;7.75;;
60730;SDS011;46580;52.114;11.674;2022-12-11T14:54:26;16.42;;;7.65;;
60730;SDS011;46580;52.114;11.674;2022-12-11T14:56:57;20.48;;;8.73;;
60730;SDS011;46580;52.114;11.674;2022-12-11T14:59:25;15.00;;;7.85;;
60730;SDS011;46580;52.114;11.674;2022-12-11T15:02:01;17.80;;;7.40;;
60730;SDS011;46580;52.114;11.674;2022-12-11T15:04:43;16.42;;;7.40;;
60730;SDS011;46580;52.114;11.674;2022-12-11T15:07:21;15.52;;;6.53;;
60730;SDS011;46580;52.114;11.674;2022-12-11T15:09:49;15.02;;;7.80;;
60730;SDS011;46580;52.114;11.674;2022-12-11T15:12:16;18.90;;;7.57;;
60730;SDS011;46580;52.114;11.674;2022-12-11T15:14:50;17.58;;;8.05;;
60730;SDS011;46580;52.114;11.674;2022-12-11T15:17:18;15.55;;;6.65;;
60730;SDS011;46580;52.114;11.674;2022-12-11T15:20:28;17.48;;;6.88;;
60730;SDS011;46580;52.114;11.674;2022-12-11T15:22:44;11.95;;;6.60;;
60730;SDS011;46580;52.114;11.674;2022-12-11T15:25:23;14.20;;;6.75;;
60730;SDS011;46580;52.114;11.674;2022-12-11T15:27:52;16.50;;;7.57;;
60730;SDS011;46580;52.114;11.674;2022-12-11T15:33:00;19.15;;;8.43;;
60730;SDS011;46580;52.114;11.674;2022-12-11T15:35:27;17.33;;;7.43;;
60730;SDS011;46580;52.114;11.674;2022-12-11T15:37:53;14.07;;;6.23;;
60730;SDS011;46580;52.114;11.674;2022-12-11T15:40:19;16.52;;;7.22;;
60730;SDS011;46580;52.114;11.674;2022-12-11T15:42:45;19.33;;;7.93;;
60730;SDS011;46580;52.114;11.674;2022-12-11T15:45:15;16.77;;;7.17;;
60730;SDS011;46580;52.114;11.674;2022-12-11T15:47:42;15.05;;;7.38;;
60730;SDS011;46580;52.114;11.674;2022-12-11T15:50:14;15.52;;;7.40;;
60730;SDS011;46580;52.114;11.674;2022-12-11T15:52:41;15.77;;;7.65;;
60730;SDS011;46580;52.114;11.674;2022-12-11T15:55:07;15.23;;;7.23;;
60730;SDS011;46580;52.114;11.674;2022-12-11T15:57:33;16.35;;;6.63;;
60730;SDS011;46580;52.114;11.674;2022-12-11T15:59:59;8.43;;;3.85;;
60730;SDS011;46580;52.114;11.674;2022-12-11T16:02:24;19.70;;;8.57;;
60730;SDS011;46580;52.114;11.674;2022-12-11T16:04:51;18.88;;;8.23;;
60730;SDS011;46580;52.114;11.674;2022-12-11T16:07:21;15.27;;;6.35;;
60730;SDS011;46580;52.114;11.674;2022-12-11T16:09:48;11.70;;;5.95;;
60730;SDS011;46580;52.114;11.674;2022-12-11T16:12:14;14.83;;;7.17;;
60730;SDS011;46580;52.114;11.674;2022-12-11T16:14:41;19.88;;;9.32;;